Time;durP1;ratioP1;P1;durP2;ratioP2;P2;SDS_P1;SDS_P2;PMS_P1;PMS_P2;Temp;Humidity;BMP_temperature;BMP_pressure;BME280_temperature;BME280_humidity;BME280_pressure;Samples;Min_cycle;Max_cycle;Signal;HPM_P1;HPM_P2
2021/05/02 00:02:53;;;;;;;21.40;12.52;;;;;;;8.63;62.09;100995.91;3985612;32;15025640;-73
2021/05/02 00:05:22;;;;;;;22.77;12.85;;;;;;;8.63;62.09;100995.91;4432420;32;20099;-73
2021/05/02 00:07:48;;;;;;;24.60;13.48;;;;;;;8.16;62.93;100991.19;4432273;32;20078;-71
2021/05/02 00:10:16;;;;;;;24.10;13.62;;;;;;;8.12;63.33;100996.03;4434072;32;20202;-72
2021/05/02 00:12:43;;;;;;;23.48;12.48;;;;;;;8.04;63.86;100992.50;4429538;32;20412;-73
2021/05/02 00:15:12;;;;;;;24.10;13.55;;;;;;;7.95;64.35;100992.19;4433445;32;20135;-72
2021/05/02 00:17:40;;;;;;;23.35;12.80;;;;;;;7.90;64.51;100991.84;4433877;32;20144;-71
2021/05/02 00:20:09;;;;;;;26.23;12.75;;;;;;;7.79;64.87;100991.94;4430435;32;20507;-75
2021/05/02 00:22:34;;;;;;;24.25;14.15;;;;;;;7.68;65.15;100985.66;4432456;32;21277;-72
2021/05/02 00:25:05;;;;;;;24.30;14.63;;;;;;;7.61;65.49;100993.31;4432561;32;20037;-74
2021/05/02 00:27:31;;;;;;;25.12;14.43;;;;;;;7.64;65.76;100995.28;4432556;32;20090;-74
2021/05/02 00:29:58;;;;;;;33.45;17.90;;;;;;;7.60;65.45;100998.09;4433898;32;20069;-73
2021/05/02 00:32:26;;;;;;;24.83;14.80;;;;;;;7.57;65.61;100998.12;4432767;32;20065;-72
2021/05/02 00:34:53;;;;;;;26.52;14.82;;;;;;;7.60;65.54;100988.91;4427862;32;20511;-72
2021/05/02 00:37:20;;;;;;;24.98;13.80;;;;;;;7.56;65.28;100985.34;4430566;32;20433;-75
2021/05/02 00:39:46;;;;;;;22.35;12.30;;;;;;;7.46;65.54;100991.81;4432497;32;20052;-76
2021/05/02 00:42:20;;;;;;;20.83;12.93;;;;;;;7.44;65.40;100989.44;4432067;32;20038;-72
2021/05/02 00:44:51;;;;;;;27.30;13.70;;;;;;;7.31;65.98;100988.34;4433105;32;20084;-75
2021/05/02 00:47:19;;;;;;;23.38;13.07;;;;;;;7.24;66.31;100987.59;4431558;32;20394;-75
2021/05/02 00:55:28;;;;;;;23.75;12.27;;;;;;;7.07;67.15;100986.47;3986327;32;15023145;-76
2021/05/02 00:58:00;;;;;;;20.67;11.40;;;;;;;7.07;67.15;100986.47;4434891;32;20064;-72
2021/05/02 01:00:31;;;;;;;20.37;10.73;;;;;;;6.55;68.51;100976.34;4437775;32;21539;-74
2021/05/02 01:03:02;;;;;;;17.27;10.20;;;;;;;6.52;68.63;100982.75;4419074;32;20642;-76
2021/05/02 01:05:29;;;;;;;16.87;10.38;;;;;;;6.42;68.54;100980.81;4419667;32;20057;-74
2021/05/02 01:07:57;;;;;;;18.77;9.98;;;;;;;6.34;68.97;100981.22;4420908;32;20102;-74
2021/05/02 01:10:24;;;;;;;17.62;10.90;;;;;;;6.27;69.14;100975.66;4422724;32;20074;-73
2021/05/02 01:12:52;;;;;;;19.23;10.95;;;;;;;6.19;69.50;100971.31;4422482;32;20065;-74
2021/05/02 01:15:24;;;;;;;21.45;10.68;;;;;;;6.19;69.45;100983.25;4421580;32;20086;-74
2021/05/02 01:18:08;;;;;;;21.35;11.02;;;;;;;6.08;70.12;100971.31;4420246;32;20046;-74
2021/05/02 01:20:36;;;;;;;17.23;10.20;;;;;;;6.11;69.99;100971.28;4419019;32;20037;-76
2021/05/02 01:23:08;;;;;;;19.20;10.75;;;;;;;6.04;70.23;100973.31;4421592;32;20057;-74
2021/05/02 01:25:34;;;;;;;20.42;10.40;;;;;;;6.01;70.46;100972.13;4422109;32;20374;-72
2021/05/02 01:28:02;;;;;;;18.75;10.30;;;;;;;5.91;70.62;100964.56;4422824;32;20128;-74
2021/05/02 01:30:28;;;;;;;14.82;9.90;;;;;;;5.94;70.38;100968.53;4419812;32;20117;-76
2021/05/02 01:32:55;;;;;;;18.67;11.23;;;;;;;5.89;70.05;100963.34;4424669;32;20095;-76
2021/05/02 01:35:21;;;;;;;17.58;10.90;;;;;;;5.83;70.47;100968.56;4418888;32;20038;-75
2021/05/02 01:37:50;;;;;;;16.02;10.05;;;;;;;5.72;70.78;100964.97;4422088;32;20034;-74
2021/05/02 01:40:18;;;;;;;19.00;11.30;;;;;;;5.72;70.58;100964.97;4418311;32;20034;-71
2021/05/02 01:42:45;;;;;;;16.10;9.95;;;;;;;5.67;70.76;100968.16;4418342;32;20022;-74
2021/05/02 01:45:11;;;;;;;19.20;10.88;;;;;;;5.67;70.78;100975.72;4422729;32;20042;-74
2021/05/02 01:47:43;;;;;;;19.85;10.65;;;;;;;5.60;71.05;100968.16;4419709;32;20112;-73
2021/05/02 01:50:11;;;;;;;17.98;11.07;;;;;;;5.61;71.08;100974.53;4420896;32;20473;-73
2021/05/02 01:52:44;;;;;;;17.67;10.95;;;;;;;5.58;71.27;100978.09;4421171;32;21725;-74
2021/05/02 01:55:11;;;;;;;19.62;11.43;;;;;;;5.52;71.62;100976.91;4422623;32;20046;-73
2021/05/02 01:57:37;;;;;;;19.80;11.48;;;;;;;5.54;71.26;100977.31;4421667;32;20041;-74
2021/05/02 02:00:13;;;;;;;18.12;11.63;;;;;;;5.59;71.28;100972.13;4420946;32;20034;-73
2021/05/02 02:02:40;;;;;;;26.60;12.05;;;;;;;5.63;71.12;100975.75;4418198;32;20430;-73
2021/05/02 02:05:07;;;;;;;24.23;12.13;;;;;;;5.63;71.20;100970.16;4416809;32;20030;-74
2021/05/02 02:07:33;;;;;;;17.08;11.00;;;;;;;5.52;71.25;100968.53;4407900;32;20060;-73
2021/05/02 02:09:59;;;;;;;26.45;12.00;;;;;;;5.60;70.93;100972.94;4406315;32;20120;-74
2021/05/02 02:12:25;;;;;;;17.37;11.25;;;;;;;5.52;71.36;100972.13;4414317;32;20081;-73
2021/05/02 02:14:52;;;;;;;23.35;12.48;;;;;;;5.52;71.32;100968.53;4410469;32;20099;-75
2021/05/02 02:17:19;;;;;;;19.25;11.80;;;;;;;5.47;71.39;100966.16;4406947;32;20107;-72
2021/05/02 02:19:46;;;;;;;19.42;10.93;;;;;;;5.45;71.48;100976.91;4404965;32;20039;-75
2021/05/02 02:22:13;;;;;;;20.67;11.25;;;;;;;5.42;71.38;100972.94;4409845;32;20104;-74
2021/05/02 02:27:25;;;;;;;20.30;11.12;;;;;;;5.67;70.56;100982.09;3985658;32;15022552;-76
2021/05/02 02:29:52;;;;;;;25.55;11.68;;;;;;;5.67;70.56;100982.09;4434053;32;20080;-76
2021/05/02 02:32:18;;;;;;;14.85;9.63;;;;;;;5.24;71.46;100979.69;4436677;32;20089;-75
2021/05/02 02:34:46;;;;;;;15.32;9.57;;;;;;;5.15;71.55;100982.06;4436590;32;20057;-73
2021/05/02 02:37:14;;;;;;;19.12;11.05;;;;;;;5.13;71.55;100985.28;4437470;32;20079;-74
2021/05/02 02:39:51;;;;;;;19.85;9.93;;;;;;;5.11;71.57;100986.84;4437509;32;20452;-74
2021/05/02 02:42:18;;;;;;;16.00;10.60;;;;;;;5.08;71.80;100982.87;4437073;32;20453;-75
2021/05/02 02:44:48;;;;;;;19.23;11.02;;;;;;;5.06;71.95;100981.66;4434715;32;20409;-74
2021/05/02 02:47:17;;;;;;;20.05;11.12;;;;;;;5.03;72.29;100986.03;4436339;32;20061;-71
2021/05/02 02:49:48;;;;;;;22.92;12.85;;;;;;;5.01;72.39;100991.22;4435996;32;20125;-77
2021/05/02 02:52:25;;;;;;;17.30;10.48;;;;;;;4.99;72.44;100988.03;4437773;32;20068;-74
2021/05/02 02:55:11;;;;;;;20.70;11.12;;;;;;;5.00;72.64;100986.81;4434749;32;20034;-75
2021/05/02 02:57:40;;;;;;;18.37;11.05;;;;;;;5.04;72.40;100986.84;4433537;32;20076;-74
2021/05/02 03:00:07;;;;;;;18.48;10.80;;;;;;;5.05;72.01;100988.44;4434581;32;21056;-73
2021/05/02 03:02:37;;;;;;;23.23;10.85;;;;;;;4.98;72.12;100986.44;4420349;32;20130;-72
2021/05/02 03:05:05;;;;;;;16.45;10.27;;;;;;;4.96;72.10;100988.00;4420495;32;20089;-72
2021/05/02 03:07:33;;;;;;;18.62;11.20;;;;;;;4.90;72.28;100982.03;4423602;32;20072;-74
2021/05/02 03:09:59;;;;;;;18.33;10.63;;;;;;;4.89;72.20;100982.41;4421876;32;20126;-75
2021/05/02 03:12:25;;;;;;;20.15;10.68;;;;;;;4.82;72.19;100983.19;4421020;32;20114;-74
2021/05/02 03:14:53;;;;;;;18.80;10.85;;;;;;;4.86;71.84;100978.44;4421697;32;20038;-72
2021/05/02 03:17:29;;;;;;;17.27;11.15;;;;;;;4.87;71.91;100984.78;4418080;32;20073;-73
2021/05/02 03:20:03;;;;;;;17.50;10.18;;;;;;;4.84;72.06;100983.59;4418072;32;20067;-75
2021/05/02 03:22:38;;;;;;;20.98;11.27;;;;;;;4.82;72.21;100985.19;4420848;32;20143;-73
2021/05/02 03:25:09;;;;;;;18.67;11.40;;;;;;;4.73;72.42;100988.34;4419121;32;20030;-74
2021/05/02 03:27:43;;;;;;;19.85;11.85;;;;;;;4.62;72.67;100975.53;4422238;32;20091;-74
2021/05/02 03:30:10;;;;;;;20.12;11.55;;;;;;;4.62;72.82;100984.72;4418590;32;20473;-75
2021/05/02 03:32:37;;;;;;;16.77;10.95;;;;;;;4.55;72.90;100990.28;4419114;32;20369;-76
2021/05/02 03:35:07;;;;;;;20.42;11.52;;;;;;;4.48;73.17;100990.22;4423004;32;20078;-73
2021/05/02 03:37:35;;;;;;;18.73;10.93;;;;;;;4.54;73.19;100988.66;4414614;32;20045;-77
2021/05/02 03:40:04;;;;;;;18.60;11.30;;;;;;;4.54;73.13;100990.66;4410541;32;20132;-73
2021/05/02 03:42:33;;;;;;;22.02;11.57;;;;;;;4.50;73.35;100990.63;4410035;32;20036;-73
2021/05/02 03:44:59;;;;;;;20.12;11.18;;;;;;;4.43;73.87;100993.41;4409467;32;20440;-74
2021/05/02 03:47:24;;;;;;;19.12;11.18;;;;;;;4.41;73.80;100992.97;4409618;32;20069;-73
2021/05/02 03:49:50;;;;;;;20.92;10.65;;;;;;;4.53;73.61;100994.62;4410103;32;20399;-72
2021/05/02 03:52:16;;;;;;;21.95;12.23;;;;;;;4.49;73.38;100999.37;4409306;32;20411;-75
2021/05/02 03:54:43;;;;;;;18.85;10.38;;;;;;;4.61;73.10;100993.47;4410399;32;20057;-75
2021/05/02 03:57:09;;;;;;;24.83;11.27;;;;;;;4.50;73.09;100995.41;4408556;32;20057;-72
2021/05/02 03:59:35;;;;;;;21.75;11.45;;;;;;;4.46;73.21;100997.38;4411972;32;20073;-72
2021/05/02 04:02:04;;;;;;;19.98;12.10;;;;;;;4.55;72.49;100995.84;4409647;32;20679;-75
2021/05/02 04:04:32;;;;;;;22.13;11.65;;;;;;;4.59;72.28;101002.22;4412746;32;20679;-71
2021/05/02 04:06:59;;;;;;;20.48;11.85;;;;;;;4.60;72.17;101001.03;4411202;32;20026;-74
2021/05/02 04:09:25;;;;;;;21.30;12.32;;;;;;;4.58;72.09;100994.25;4407579;32;20085;-72
2021/05/02 04:11:51;;;;;;;24.73;13.05;;;;;;;4.47;72.46;100999.78;4408726;32;20065;-72
2021/05/02 04:14:17;;;;;;;21.80;12.18;;;;;;;4.48;72.55;100995.78;4412004;32;20382;-73
2021/05/02 04:16:43;;;;;;;26.25;12.93;;;;;;;4.43;72.60;100998.97;4409987;32;20066;-74
2021/05/02 04:19:11;;;;;;;21.98;12.02;;;;;;;4.39;72.92;100991.78;4410280;32;20026;-72
2021/05/02 04:21:37;;;;;;;20.08;12.65;;;;;;;4.43;72.89;100998.97;4410633;32;20465;-72
2021/05/02 04:24:04;;;;;;;22.17;12.75;;;;;;;4.46;72.93;101000.97;4409930;32;20033;-72
2021/05/02 04:26:30;;;;;;;21.95;12.77;;;;;;;4.46;73.07;101000.16;4411255;32;20058;-73
2021/05/02 04:28:56;;;;;;;22.58;12.68;;;;;;;4.36;72.96;101003.72;4413086;32;21207;-76
2021/05/02 04:31:22;;;;;;;26.77;12.95;;;;;;;4.34;73.22;101001.31;4412726;32;20118;-75
2021/05/02 04:33:48;;;;;;;25.45;12.95;;;;;;;4.34;73.30;101009.66;4408932;32;20100;-73
2021/05/02 04:36:14;;;;;;;22.90;13.35;;;;;;;4.32;73.34;101012.03;4409371;32;20047;-74
2021/05/02 04:38:40;;;;;;;23.60;13.30;;;;;;;4.31;73.32;101020.78;4410070;32;20053;-75
2021/05/02 04:41:06;;;;;;;23.62;12.88;;;;;;;4.33;73.18;101015.63;4410829;32;20465;-74
2021/05/02 04:43:32;;;;;;;23.73;12.73;;;;;;;4.41;73.11;101014.47;4413488;32;20050;-74
2021/05/02 04:45:57;;;;;;;28.17;13.18;;;;;;;4.41;72.99;101018.06;4407188;32;20064;-74
2021/05/02 04:48:23;;;;;;;23.83;14.05;;;;;;;4.38;73.23;101016.06;4410173;32;20066;-73
2021/05/02 04:50:49;;;;;;;23.17;13.57;;;;;;;4.39;73.27;101016.87;4410467;32;20085;-72
2021/05/02 04:53:14;;;;;;;22.60;13.23;;;;;;;4.47;73.37;101021.25;4406615;32;20563;-75
2021/05/02 04:55:40;;;;;;;21.20;13.00;;;;;;;4.56;73.10;101024.50;4412147;32;20133;-72
2021/05/02 04:58:08;;;;;;;24.60;14.13;;;;;;;4.61;72.96;101027.72;4408543;32;20194;-73
2021/05/02 05:00:34;;;;;;;23.30;13.50;;;;;;;4.62;73.03;101025.72;4411579;32;20085;-74
2021/05/02 05:03:01;;;;;;;27.23;14.35;;;;;;;4.58;72.95;101028.50;4409242;32;20091;-74
2021/05/02 05:05:27;;;;;;;23.90;15.38;;;;;;;4.71;72.44;101040.09;4408426;32;20198;-75
2021/05/02 05:07:52;;;;;;;25.42;14.87;;;;;;;4.80;72.34;101041.34;4411108;32;20523;-73
2021/05/02 05:10:18;;;;;;;30.55;15.77;;;;;;;4.81;71.99;101042.12;4411996;32;20930;-73
2021/05/02 05:12:44;;;;;;;25.88;15.38;;;;;;;4.79;71.71;101036.94;4410923;32;20029;-73
2021/05/02 05:15:11;;;;;;;28.40;16.00;;;;;;;4.84;71.73;101041.34;4413521;32;21118;-73
2021/05/02 05:17:37;;;;;;;32.58;17.12;;;;;;;4.85;71.74;101043.72;4408043;32;20026;-71
2021/05/02 05:20:05;;;;;;;26.85;15.55;;;;;;;4.86;71.99;101042.56;4410345;32;20100;-74
2021/05/02 05:22:33;;;;;;;45.88;17.85;;;;;;;4.75;72.31;101047.28;4405554;32;20060;-75
2021/05/02 05:25:00;;;;;;;27.98;16.10;;;;;;;4.74;72.93;101051.28;4411319;32;20046;-74
2021/05/02 05:27:26;;;;;;;29.95;16.58;;;;;;;4.84;72.64;101053.31;4412113;32;20139;-74
2021/05/02 05:29:51;;;;;;;25.73;15.13;;;;;;;4.86;72.59;101052.91;4410238;32;20033;-75
2021/05/02 05:32:17;;;;;;;24.55;15.25;;;;;;;4.89;72.34;101050.16;4408023;32;20074;-74
2021/05/02 05:34:43;;;;;;;24.90;15.07;;;;;;;4.93;72.08;101059.31;4408190;32;20034;-73
2021/05/02 05:37:09;;;;;;;25.30;14.10;;;;;;;4.93;71.57;101064.88;4409125;32;20460;-72
2021/05/02 05:39:34;;;;;;;24.60;14.85;;;;;;;4.90;71.80;101062.06;4407501;32;20264;-75
2021/05/02 05:42:00;;;;;;;22.15;13.90;;;;;;;4.91;71.77;101058.13;4407744;32;20371;-75
2021/05/02 05:44:26;;;;;;;29.30;15.77;;;;;;;4.97;71.53;101062.12;4408409;32;20114;-73
2021/05/02 05:46:52;;;;;;;30.15;16.17;;;;;;;4.99;71.69;101060.53;4406855;32;20019;-72
2021/05/02 05:49:19;;;;;;;27.92;16.37;;;;;;;5.02;71.39;101064.53;4408010;32;20014;-73
2021/05/02 05:51:49;;;;;;;29.58;15.10;;;;;;;5.01;71.49;101060.94;4408121;32;20104;-74
2021/05/02 05:54:15;;;;;;;25.10;15.48;;;;;;;5.07;71.51;101067.75;4409912;32;20380;-73
2021/05/02 05:56:41;;;;;;;27.42;15.77;;;;;;;5.15;71.74;101072.13;4408713;32;20184;-75
2021/05/02 05:59:07;;;;;;;26.95;15.30;;;;;;;5.26;71.34;101072.16;4408738;32;20097;-75
2021/05/02 06:01:32;;;;;;;26.85;15.38;;;;;;;5.38;71.10;101067.03;4408895;32;20113;-71
2021/05/02 06:03:59;;;;;;;26.52;15.27;;;;;;;5.51;70.56;101067.44;4408791;32;20061;-72
2021/05/02 06:06:25;;;;;;;26.35;16.52;;;;;;;5.56;70.36;101067.06;4410376;32;20070;-73
2021/05/02 06:08:50;;;;;;;33.20;16.35;;;;;;;5.64;70.13;101065.84;4410712;32;20194;-73
2021/05/02 06:11:16;;;;;;;26.77;16.58;;;;;;;5.72;70.27;101071.06;4411243;32;20427;-72
2021/05/02 06:13:42;;;;;;;31.15;17.08;;;;;;;5.86;69.86;101068.31;4410175;32;20065;-73
2021/05/02 06:16:08;;;;;;;29.33;16.77;;;;;;;6.08;69.24;101063.53;4406294;32;20091;-72
2021/05/02 06:18:34;;;;;;;28.90;16.23;;;;;;;6.28;68.86;101063.87;4408232;32;20096;-74
2021/05/02 06:21:00;;;;;;;29.65;16.30;;;;;;;6.40;68.69;101069.84;4410532;32;20073;-73
2021/05/02 06:23:25;;;;;;;26.70;15.65;;;;;;;6.46;67.73;101062.66;4410392;32;20406;-72
2021/05/02 06:25:52;;;;;;;30.67;16.73;;;;;;;6.56;67.81;101066.63;4408147;32;20078;-72
2021/05/02 06:28:17;;;;;;;29.33;17.00;;;;;;;6.68;67.77;101069.78;4409294;32;20103;-75
2021/05/02 06:30:44;;;;;;;28.52;15.82;;;;;;;6.84;67.01;101063.75;4409716;32;20409;-72
2021/05/02 06:33:10;;;;;;;22.08;15.23;;;;;;;6.97;66.38;101062.88;4409865;32;20049;-73
2021/05/02 06:35:37;;;;;;;25.08;16.62;;;;;;;6.97;66.07;101065.66;4409122;32;20317;-74
2021/05/02 06:38:02;;;;;;;31.40;17.12;;;;;;;6.99;65.92;101063.25;4408695;32;20156;-74
2021/05/02 06:40:28;;;;;;;32.90;16.77;;;;;;;7.01;66.31;101068.47;4408273;32;20367;-73
2021/05/02 06:42:54;;;;;;;26.70;15.70;;;;;;;7.00;66.01;101062.06;4408629;32;20087;-75
2021/05/02 06:45:19;;;;;;;27.92;16.85;;;;;;;6.99;66.67;101060.47;4407552;32;20072;-72
2021/05/02 06:47:45;;;;;;;40.22;17.80;;;;;;;7.12;66.49;101066.41;4408700;32;20093;-75
2021/05/02 06:50:11;;;;;;;31.20;16.60;;;;;;;7.18;66.37;101067.59;4409935;32;20256;-75
2021/05/02 06:52:36;;;;;;;28.67;16.80;;;;;;;7.27;66.12;101068.72;4407470;32;20022;-74
2021/05/02 06:55:03;;;;;;;29.92;16.40;;;;;;;7.39;65.55;101073.03;4407444;32;20046;-73
2021/05/02 06:57:29;;;;;;;27.08;17.37;;;;;;;7.51;64.50;101062.19;4408422;32;20151;-72
2021/05/02 06:59:55;;;;;;;37.80;17.90;;;;;;;7.69;64.62;101073.25;4410135;32;20078;-71
2021/05/02 07:02:21;;;;;;;34.33;18.70;;;;;;;7.87;64.17;101071.94;4408003;32;20085;-72
2021/05/02 07:04:47;;;;;;;34.33;19.30;;;;;;;8.07;64.25;101067.34;4407772;32;20077;-75
2021/05/02 07:07:12;;;;;;;39.75;19.87;;;;;;;8.24;63.85;101064.81;4407548;32;20477;-71
2021/05/02 07:09:38;;;;;;;32.67;19.10;;;;;;;8.50;63.49;101070.56;4411072;32;20068;-75
2021/05/02 07:12:04;;;;;;;32.65;19.15;;;;;;;8.71;62.91;101073.16;4413214;32;20042;-74
2021/05/02 07:14:30;;;;;;;33.58;17.95;;;;;;;8.92;62.09;101067.28;4414611;32;20074;-76
2021/05/02 07:16:55;;;;;;;31.70;16.62;;;;;;;9.09;61.64;101073.91;4411539;32;20096;-72
2021/05/02 07:19:22;;;;;;;25.17;15.40;;;;;;;9.30;61.04;101071.59;4411184;32;20515;-72
2021/05/02 07:21:48;;;;;;;28.95;14.40;;;;;;;9.55;60.38;101071.25;4409504;32;20288;-74
2021/05/02 07:24:15;;;;;;;19.35;12.37;;;;;;;9.77;58.97;101075.34;4410957;32;20809;-73
2021/05/02 07:26:41;;;;;;;17.02;9.93;;;;;;;9.96;58.20;101072.62;4410257;32;20034;-73
2021/05/02 07:29:07;;;;;;;13.95;7.30;;;;;;;10.27;57.15;101078.94;4411359;32;20026;-73
2021/05/02 07:31:33;;;;;;;14.45;6.50;;;;;;;10.35;55.77;101068.38;4410114;32;20102;-74
2021/05/02 07:33:59;;;;;;;15.98;7.72;;;;;;;10.50;54.77;101072.53;4410233;32;20056;-74
2021/05/02 07:36:25;;;;;;;18.10;7.03;;;;;;;10.78;54.20;101071.97;4406869;32;20085;-73
2021/05/02 07:38:51;;;;;;;12.25;5.62;;;;;;;11.04;53.43;101071.03;4411563;32;20048;-75
2021/05/02 07:41:18;;;;;;;12.93;6.85;;;;;;;11.23;52.30;101073.84;4410299;32;20097;-76
2021/05/02 07:43:44;;;;;;;12.68;6.37;;;;;;;11.36;51.82;101083.25;4409048;32;20052;-75
2021/05/02 07:46:09;;;;;;;15.40;6.70;;;;;;;11.40;51.12;101069.84;4409611;32;20046;-75
2021/05/02 07:48:36;;;;;;;10.13;6.00;;;;;;;11.61;51.25;101072.22;4410315;32;20100;-72
2021/05/02 07:51:02;;;;;;;9.85;5.28;;;;;;;11.83;50.16;101072.50;4413598;32;20077;-72
2021/05/02 07:53:28;;;;;;;12.85;4.72;;;;;;;12.03;48.99;101073.25;4409448;32;20059;-75
2021/05/02 07:55:54;;;;;;;7.25;3.70;;;;;;;12.14;47.41;101070.94;4413108;32;20045;-73
2021/05/02 07:58:19;;;;;;;15.82;3.85;;;;;;;12.32;46.83;101071.28;4413097;32;20014;-76
2021/05/02 08:00:46;;;;;;;8.35;3.37;;;;;;;12.56;46.04;101069.84;4410096;32;20022;-72
2021/05/02 08:03:13;;;;;;;7.40;3.40;;;;;;;12.77;45.20;101069.28;4410710;32;20277;-76
2021/05/02 08:05:39;;;;;;;6.95;2.80;;;;;;;12.88;44.92;101066.91;4410554;32;20351;-75
2021/05/02 08:08:05;;;;;;;5.50;3.00;;;;;;;13.16;43.57;101071.78;4411084;32;20038;-75
2021/05/02 08:10:31;;;;;;;5.18;2.90;;;;;;;13.10;42.55;101075.62;4410711;32;20079;-73
2021/05/02 08:12:57;;;;;;;6.80;3.05;;;;;;;13.21;42.52;101073.25;4412028;32;20038;-73
2021/05/02 08:15:23;;;;;;;4.85;2.90;;;;;;;13.39;42.27;101068.69;4410460;32;20124;-75
2021/05/02 08:17:49;;;;;;;7.53;2.25;;;;;;;13.73;41.17;101082.97;4410740;32;20045;-74
2021/05/02 08:20:16;;;;;;;5.53;2.30;;;;;;;13.68;40.51;101063.72;4411334;32;20289;-74
2021/05/02 08:22:41;;;;;;;2.90;1.50;;;;;;;13.76;40.41;101075.59;4410343;32;20077;-72
2021/05/02 08:25:08;;;;;;;1.77;1.10;;;;;;;13.74;38.15;101083.75;4410662;32;20090;-76
2021/05/02 08:27:34;;;;;;;3.92;1.17;;;;;;;13.85;37.92;101073.69;4410841;32;20081;-76
2021/05/02 08:30:00;;;;;;;3.72;1.02;;;;;;;13.87;36.26;101079.66;4411114;32;20184;-73
2021/05/02 08:32:26;;;;;;;2.28;1.00;;;;;;;13.78;35.34;101075.94;4411361;32;20065;-72
2021/05/02 08:34:52;;;;;;;1.95;1.00;;;;;;;13.76;34.52;101075.59;4409101;32;20145;-72
2021/05/02 08:37:18;;;;;;;1.23;0.98;;;;;;;13.87;34.08;101074.00;4413161;32;20042;-74
2021/05/02 08:39:44;;;;;;;5.47;1.12;;;;;;;14.27;33.75;101070.72;4412375;32;20089;-71
2021/05/02 08:42:10;;;;;;;6.60;1.70;;;;;;;14.84;33.92;101070.31;4410077;32;21024;-75
2021/05/02 08:44:36;;;;;;;1.50;1.08;;;;;;;15.46;32.59;101066.34;4409657;32;20070;-73
2021/05/02 08:47:04;;;;;;;4.18;0.73;;;;;;;16.31;30.96;101069.38;4411248;32;20046;-72
2021/05/02 08:49:30;;;;;;;3.67;0.70;;;;;;;17.24;29.45;101068.47;4409221;32;20031;-73
2021/05/02 08:51:56;;;;;;;3.45;1.20;;;;;;;18.04;28.07;101074.44;4409021;32;20390;-74
2021/05/02 08:54:23;;;;;;;3.28;0.93;;;;;;;18.08;27.76;101078.69;4411277;32;20091;-72
2021/05/02 08:56:55;;;;;;;6.47;1.33;;;;;;;18.18;27.61;101070.87;4406661;32;20038;-74
2021/05/02 08:59:21;;;;;;;3.53;1.48;;;;;;;18.19;29.23;101072.47;4409630;32;20062;-73
2021/05/02 09:01:47;;;;;;;3.40;1.50;;;;;;;17.94;31.50;101072.91;4410486;32;20072;-73
2021/05/02 09:04:13;;;;;;;2.47;1.50;;;;;;;17.40;32.88;101068.16;4411743;32;20098;-73
2021/05/02 09:06:41;;;;;;;5.45;1.60;;;;;;;16.61;33.84;101072.16;4409756;32;20018;-73
2021/05/02 09:09:10;;;;;;;2.20;1.45;;;;;;;16.46;34.49;101074.03;4410994;32;20065;-73
2021/05/02 09:11:40;;;;;;;3.00;1.40;;;;;;;16.12;34.94;101079.91;4410237;32;20061;-73
2021/05/02 09:14:24;;;;;;;4.10;1.50;;;;;;;15.80;34.78;101077.56;4409494;32;20088;-75
2021/05/02 09:16:51;;;;;;;4.55;1.70;;;;;;;15.69;35.61;101071.53;4414194;32;20018;-73
2021/05/02 09:19:20;;;;;;;5.28;1.80;;;;;;;15.50;36.61;101084.06;4407078;32;20034;-74
2021/05/02 09:21:46;;;;;;;4.45;1.52;;;;;;;15.71;36.34;101078.31;4404977;32;20070;-75
2021/05/02 09:24:31;;;;;;;3.65;1.60;;;;;;;16.04;35.56;101078.63;4406371;32;20042;-72
2021/05/02 09:29:36;;;;;;;2.93;1.47;;;;;;;17.36;32.61;101074.00;3989181;31;15069015;-75
2021/05/02 09:32:04;;;;;;;5.32;1.70;;;;;;;17.36;32.61;101074.00;4441503;32;20104;-72
2021/05/02 09:34:31;;;;;;;3.97;1.30;;;;;;;17.40;31.86;101059.63;4440985;32;20096;-73
2021/05/02 09:37:03;;;;;;;5.93;1.67;;;;;;;17.86;30.72;101076.09;4440658;32;20565;-75
2021/05/02 09:39:49;;;;;;;5.70;1.40;;;;;;;18.09;30.41;101076.63;4440135;32;20037;-73
2021/05/02 09:44:56;;;;;;;2.45;1.60;;;;;;;17.81;30.48;101081.66;3984777;32;15022327;-72
2021/05/02 09:50:18;;;;;;;2.35;1.20;;;;;;;18.05;28.34;101073.97;3983121;32;15026224;-75
2021/05/02 09:55:26;;;;;;;5.93;1.30;;;;;;;18.58;29.00;101071.28;3983825;32;15022019;-74
2021/05/02 09:58:16;;;;;;;3.08;1.20;;;;;;;18.58;29.00;101071.28;4440926;32;20067;-73
2021/05/02 10:03:29;;;;;;;4.25;1.37;;;;;;;19.49;26.93;101069.25;3985802;32;15024304;-75
2021/05/02 10:06:03;;;;;;;3.67;1.60;;;;;;;19.49;26.93;101069.25;4440557;32;20481;-76
2021/05/02 10:08:31;;;;;;;2.50;1.58;;;;;;;19.45;26.88;101055.16;4440097;32;20410;-73
2021/05/02 10:10:59;;;;;;;5.07;1.65;;;;;;;19.38;27.95;101064.13;4438652;32;20085;-73
2021/05/02 10:13:25;;;;;;;4.53;1.60;;;;;;;19.69;27.75;101058.69;4437029;32;20051;-74
2021/05/02 10:15:51;;;;;;;3.85;1.67;;;;;;;19.95;27.95;101061.72;4439825;32;20025;-73
2021/05/02 10:18:17;;;;;;;2.95;1.37;;;;;;;20.22;26.82;101061.34;4439766;32;20108;-71
2021/05/02 10:20:45;;;;;;;10.02;2.10;;;;;;;20.30;26.95;101065.38;4438467;32;20044;-75
2021/05/02 10:23:12;;;;;;;2.00;1.20;;;;;;;19.93;26.22;101063.47;4441525;32;20409;-73
2021/05/02 10:25:38;;;;;;;5.93;1.55;;;;;;;19.82;25.81;101049.78;4439576;32;20104;-73
2021/05/02 10:28:05;;;;;;;3.83;1.52;;;;;;;19.35;25.90;101056.53;4439235;32;20382;-74
2021/05/02 10:30:33;;;;;;;5.78;1.62;;;;;;;19.18;25.83;101060.34;4433588;32;20119;-73
2021/05/02 10:33:09;;;;;;;2.80;1.52;;;;;;;19.14;26.43;101066.22;4438333;32;20675;-75
2021/05/02 10:35:55;;;;;;;4.53;2.20;;;;;;;19.12;27.01;101062.28;4438711;32;20073;-73
2021/05/02 10:38:42;;;;;;;3.83;1.95;;;;;;;18.75;28.25;101064.66;4438832;32;20068;-72
2021/05/02 10:51:55;;;;;;;4.10;2.92;;;;;;;18.95;27.41;101067.66;3985725;32;15022988;-72
2021/05/02 10:54:23;;;;;;;3.75;2.80;;;;;;;18.79;27.47;101061.63;4438941;32;20156;-72
2021/05/02 10:56:54;;;;;;;5.25;3.00;;;;;;;19.12;27.13;101054.50;4440584;32;20567;-73
2021/05/02 10:59:26;;;;;;;5.53;3.65;;;;;;;19.76;26.52;101057.50;4438953;32;20116;-74
2021/05/02 11:01:52;;;;;;;4.75;3.08;;;;;;;19.88;26.39;101056.38;4431480;32;21698;-74
2021/05/02 11:04:18;;;;;;;4.15;2.03;;;;;;;19.69;25.94;101061.53;4424851;32;20081;-75
2021/05/02 11:09:21;;;;;;;4.37;2.15;;;;;;;19.50;25.54;101051.63;3990181;31;15017984;-73
2021/05/02 11:11:50;;;;;;;4.55;2.10;;;;;;;19.50;25.54;101051.63;4449043;32;20030;-75
2021/05/02 11:22:07;;;;;;;4.07;2.10;;;;;;;18.93;25.60;101049.47;3982396;32;15021912;-76
2021/05/02 11:27:22;;;;;;;4.85;1.77;;;;;;;18.73;24.76;101064.37;3984256;32;15022773;-76
2021/05/02 11:35:06;;;;;;;5.20;2.17;;;;;;;18.46;26.25;101050.31;4002545;31;15016099;-73
2021/05/02 11:38:00;;;;;;;3.37;1.90;;;;;;;18.46;26.25;101050.31;4457724;32;20222;-76
2021/05/02 11:43:23;;;;;;;2.70;1.80;;;;;;;18.50;25.66;101061.53;3991080;31;15019722;-74
2021/05/02 11:45:52;;;;;;;4.05;2.05;;;;;;;18.50;25.66;101061.53;4456575;32;20500;-74
2021/05/02 11:50:57;;;;;;;5.00;2.20;;;;;;;18.77;25.96;101064.16;3983007;32;15022981;-72
2021/05/02 11:58:48;;;;;;;7.20;2.20;;;;;;;18.15;27.12;101069.78;3975207;32;15022660;-73
2021/05/02 12:01:17;;;;;;;4.68;2.10;;;;;;;18.15;27.12;101069.78;4425876;32;20068;-73
2021/05/02 12:03:45;;;;;;;4.90;2.30;;;;;;;17.59;26.85;101052.62;4410825;32;20082;-72
2021/05/02 12:06:20;;;;;;;4.97;2.70;;;;;;;17.64;26.99;101049.12;4411248;32;20190;-72
2021/05/02 12:08:46;;;;;;;3.47;2.20;;;;;;;17.84;26.73;101057.91;4412406;32;20373;-75
2021/05/02 12:11:15;;;;;;;3.92;2.25;;;;;;;18.08;26.70;101057.97;4411728;32;20025;-72
2021/05/02 12:13:45;;;;;;;5.85;2.60;;;;;;;18.61;26.20;101053.22;4410749;32;20046;-75
2021/05/02 12:16:14;;;;;;;6.32;2.70;;;;;;;19.30;25.15;101060.06;4411208;32;20078;-72
2021/05/02 12:24:04;;;;;;;5.47;3.28;;;;;;;20.55;24.12;101043.87;3984984;32;15026579;-75
2021/05/02 12:26:30;;;;;;;10.52;5.00;;;;;;;20.55;24.12;101043.87;4441947;32;20320;-75
2021/05/02 12:28:59;;;;;;;3.15;2.70;;;;;;;20.33;24.37;101047.22;4441397;32;20073;-75
2021/05/02 12:31:25;;;;;;;3.55;2.80;;;;;;;20.60;23.95;101032.53;4441553;32;20385;-73